Time;durP1;ratioP1;P1;durP2;ratioP2;P2;SDS_P1;SDS_P2;PMS_P1;PMS_P2;Temp;Humidity;BMP_temperature;BMP_pressure;BME280_temperature;BME280_humidity;BME280_pressure;Samples;Min_cycle;Max_cycle;Signal;HPM_P1;HPM_P2
2022/05/13 00:01:26;;;;;;;29.33;9.00;;;;;;;14.92;56.93;95289.56;5043348;28;20033;-74
2022/05/13 00:03:51;;;;;;;20.52;10.05;;;;;;;14.94;57.43;95290.91;5059926;28;20033;-74
2022/05/13 00:06:17;;;;;;;19.70;11.27;;;;;;;14.92;57.35;95289.56;5061103;28;20087;-73
2022/05/13 00:08:42;;;;;;;27.60;10.95;;;;;;;14.90;57.11;95289.03;5059568;28;20037;-74
2022/05/13 00:11:08;;;;;;;24.80;11.77;;;;;;;14.86;57.46;95291.38;5043225;28;20037;-75
2022/05/13 00:13:33;;;;;;;26.65;11.07;;;;;;;14.83;57.71;95291.88;5043093;28;20090;-74
2022/05/13 00:15:59;;;;;;;23.08;10.38;;;;;;;14.80;57.79;95291.53;5049873;28;20528;-73
2022/05/13 00:18:24;;;;;;;19.52;11.20;;;;;;;14.81;57.96;95288.69;5060420;28;20052;-74
2022/05/13 00:20:50;;;;;;;27.33;11.90;;;;;;;14.76;58.07;95290.47;5058145;28;20533;-74
2022/05/13 00:23:15;;;;;;;27.65;11.40;;;;;;;14.75;57.92;95292.28;5059626;28;20044;-74
2022/05/13 00:25:41;;;;;;;26.40;11.68;;;;;;;14.71;58.00;95288.59;5059410;28;20451;-74
2022/05/13 00:28:07;;;;;;;20.77;11.73;;;;;;;14.67;58.22;95288.28;5025935;28;20029;-75
2022/05/13 00:30:38;;;;;;;26.42;12.30;;;;;;;14.62;58.62;95290.84;5061254;28;20035;-74
2022/05/13 00:33:04;;;;;;;27.33;11.85;;;;;;;14.60;58.76;95286.88;5058857;28;20111;-74
2022/05/13 00:35:29;;;;;;;28.85;13.77;;;;;;;14.59;58.44;95285.31;5042602;28;20040;-74
2022/05/13 00:37:55;;;;;;;34.13;15.75;;;;;;;14.53;58.29;95281.84;5060320;28;20063;-74
2022/05/13 00:40:21;;;;;;;27.30;14.57;;;;;;;14.50;58.58;95281.56;5060495;28;20040;-74
2022/05/13 00:42:47;;;;;;;19.00;11.93;;;;;;;14.44;58.65;95282.50;5060186;28;20504;-74
2022/05/13 00:45:15;;;;;;;22.67;11.32;;;;;;;14.41;58.73;95284.56;5059063;28;20025;-75
2022/05/13 00:47:41;;;;;;;20.13;11.02;;;;;;;14.39;58.85;95289.25;5059584;28;20036;-74
2022/05/13 00:50:07;;;;;;;21.70;12.55;;;;;;;14.36;59.05;95289.72;5056761;28;20480;-75
2022/05/13 00:52:32;;;;;;;21.63;11.25;;;;;;;14.33;58.81;95287.59;5042227;28;20037;-74
2022/05/13 00:54:59;;;;;;;28.25;11.27;;;;;;;14.29;58.70;95293.53;5058968;28;20078;-74
2022/05/13 00:57:25;;;;;;;24.02;10.48;;;;;;;14.27;59.08;95293.78;5041778;28;20053;-75
2022/05/13 00:59:50;;;;;;;19.08;9.82;;;;;;;14.26;59.00;95297.44;5041786;28;20051;-74
2022/05/13 01:02:16;;;;;;;21.40;10.27;;;;;;;14.25;58.92;95301.09;5058805;28;20035;-74
2022/05/13 01:04:42;;;;;;;15.95;10.25;;;;;;;14.24;59.56;95296.91;5058804;28;20053;-74
2022/05/13 01:07:13;;;;;;;20.75;9.82;;;;;;;14.21;59.20;95296.59;5058334;28;20455;-74
2022/05/13 01:09:41;;;;;;;20.38;9.43;;;;;;;14.18;58.97;95292.66;5043177;28;20039;-74
2022/05/13 01:12:09;;;;;;;17.67;8.75;;;;;;;14.16;59.22;95288.69;5055439;28;20044;-73
2022/05/13 01:14:40;;;;;;;27.95;9.10;;;;;;;14.12;59.30;95294.38;5069590;28;20032;-75
2022/05/13 01:20:03;;;;;;;19.42;9.65;;;;;;;14.06;59.42;95297.19;5058661;28;20078;-74
2022/05/13 01:22:30;;;;;;;20.83;10.55;;;;;;;14.03;59.92;95288.00;5059380;28;20029;-74
2022/05/13 01:24:56;;;;;;;21.80;13.10;;;;;;;14.03;59.49;95281.97;5058481;28;20115;-74
2022/05/13 01:27:21;;;;;;;32.17;10.90;;;;;;;14.02;59.82;95290.84;5041982;28;20041;-74
2022/05/13 01:29:48;;;;;;;32.30;9.98;;;;;;;14.03;59.58;95289.81;5059275;28;20028;-74
2022/05/13 01:32:14;;;;;;;25.88;11.15;;;;;;;14.04;59.51;95288.78;5058343;28;20036;-74
2022/05/13 01:34:40;;;;;;;26.35;10.40;;;;;;;14.03;59.77;95287.22;5060369;28;20021;-74
2022/05/13 01:37:05;;;;;;;26.15;11.85;;;;;;;14.01;59.85;95289.28;5076213;28;20053;-74
2022/05/13 01:39:31;;;;;;;14.90;10.15;;;;;;;13.96;59.88;95286.56;5061427;28;20055;-73
2022/05/13 01:42:15;;;;;;;13.18;9.90;;;;;;;13.99;59.76;95283.47;5041584;28;20029;-74
2022/05/13 01:44:40;;;;;;;12.98;9.55;;;;;;;13.96;60.03;95273.50;5058400;28;20035;-74
2022/05/13 01:47:06;;;;;;;25.70;10.23;;;;;;;13.91;60.09;95274.22;5059107;28;20396;-73
2022/05/13 01:49:31;;;;;;;27.77;10.75;;;;;;;13.88;60.16;95263.47;5059252;28;20036;-74
2022/05/13 01:51:57;;;;;;;20.92;12.07;;;;;;;13.86;60.35;95257.69;5040971;28;20033;-74
2022/05/13 01:54:22;;;;;;;27.33;14.13;;;;;;;13.84;60.72;95262.38;5057867;28;20024;-74
2022/05/13 01:56:47;;;;;;;22.35;14.18;;;;;;;13.77;60.42;95268.53;5041479;28;20033;-74
2022/05/13 01:59:13;;;;;;;41.85;21.10;;;;;;;13.75;60.10;95264.59;5058616;28;20056;-74
2022/05/13 02:01:38;;;;;;;41.42;22.25;;;;;;;13.71;60.37;95268.72;5059837;28;20455;-74
2022/05/13 02:04:04;;;;;;;59.95;28.77;;;;;;;13.65;60.49;95270.47;5044351;28;20037;-74
2022/05/13 02:06:30;;;;;;;66.22;27.67;;;;;;;13.56;60.65;95271.13;5060400;28;20470;-74
2022/05/13 02:08:56;;;;;;;51.45;23.80;;;;;;;13.54;60.97;95271.34;5062422;28;20039;-74
2022/05/13 02:11:22;;;;;;;35.50;18.30;;;;;;;13.50;61.26;95272.84;5044721;28;20067;-74
2022/05/13 02:13:49;;;;;;;45.00;19.48;;;;;;;13.45;61.17;95270.94;5061415;28;20117;-74
2022/05/13 02:16:15;;;;;;;37.42;19.63;;;;;;;13.44;61.09;95273.81;5061823;28;20377;-74
2022/05/13 02:18:41;;;;;;;41.58;18.20;;;;;;;13.42;61.14;95275.88;5064164;28;20082;-75
2022/05/13 02:21:08;;;;;;;33.40;17.25;;;;;;;13.37;61.35;95278.41;5060821;28;20044;-74
2022/05/13 02:23:33;;;;;;;33.38;19.63;;;;;;;13.38;61.18;95275.56;5062860;28;20031;-75
2022/05/13 02:26:00;;;;;;;45.17;21.27;;;;;;;13.33;61.30;95278.06;5061751;28;20029;-74
2022/05/13 02:28:26;;;;;;;45.70;23.02;;;;;;;13.30;61.88;95280.38;5060938;28;20033;-74
2022/05/13 02:30:52;;;;;;;52.00;21.23;;;;;;;13.27;61.55;95281.63;5060738;28;20031;-74
2022/05/13 02:33:17;;;;;;;41.75;19.92;;;;;;;13.28;62.55;95290.25;5063013;28;20032;-74
2022/05/13 02:35:42;;;;;;;27.10;18.38;;;;;;;13.25;61.89;95281.09;5061581;28;20511;-74
2022/05/13 02:38:08;;;;;;;40.30;19.15;;;;;;;13.27;62.05;95284.25;5060599;28;20036;-75
2022/05/13 02:43:17;;;;;;;25.95;17.10;;;;;;;13.20;62.27;95281.00;5061464;28;20094;-74
2022/05/13 02:45:42;;;;;;;32.83;15.65;;;;;;;13.23;62.02;95284.97;5043843;28;20028;-74
2022/05/13 02:48:08;;;;;;;28.88;16.55;;;;;;;13.23;61.60;95283.16;5051942;28;20495;-75
2022/05/13 02:50:34;;;;;;;39.95;16.30;;;;;;;13.23;61.98;95288.38;5060841;28;20060;-74
2022/05/13 02:52:59;;;;;;;34.05;15.27;;;;;;;13.25;62.04;95285.53;5060866;28;20033;-74
2022/05/13 02:55:25;;;;;;;38.92;16.63;;;;;;;13.24;62.25;95289.16;5061344;28;20037;-74
2022/05/13 02:57:56;;;;;;;45.85;19.35;;;;;;;13.21;62.18;95290.44;5043706;28;20082;-74
2022/05/13 03:00:22;;;;;;;49.97;19.48;;;;;;;13.21;62.75;95290.44;5060345;28;20040;-74
2022/05/13 03:02:47;;;;;;;36.75;20.10;;;;;;;13.22;62.15;95292.00;5060405;28;20029;-75
2022/05/13 03:05:13;;;;;;;43.85;16.27;;;;;;;13.21;62.35;95286.00;5060430;28;20040;-74
2022/05/13 03:07:38;;;;;;;45.60;18.65;;;;;;;13.25;61.57;95288.91;5044093;28;20462;-74
2022/05/13 03:10:05;;;;;;;61.05;19.60;;;;;;;13.23;62.21;95287.56;5061490;28;20653;-74
2022/05/13 03:12:33;;;;;;;58.80;18.00;;;;;;;13.29;62.11;95284.00;5060499;28;20074;-75
2022/05/13 03:14:59;;;;;;;48.90;22.35;;;;;;;13.25;62.00;95286.31;5044049;28;20111;-74
2022/05/13 03:17:24;;;;;;;50.15;23.13;;;;;;;13.29;61.61;95297.84;5061602;28;20673;-74
2022/05/13 03:19:49;;;;;;;66.13;24.92;;;;;;;13.28;61.72;95295.47;5062048;28;20025;-74
2022/05/13 03:22:15;;;;;;;63.42;28.70;;;;;;;13.27;61.74;95297.31;5042558;28;20035;-74
2022/05/13 03:24:40;;;;;;;57.03;24.40;;;;;;;13.30;61.27;95301.25;5044040;28;20035;-74
2022/05/13 03:27:13;;;;;;;47.28;19.88;;;;;;;13.30;61.28;95296.03;5060854;28;20101;-74
2022/05/13 03:29:39;;;;;;;43.22;19.52;;;;;;;13.30;61.18;95299.44;5059780;28;20060;-74
2022/05/13 03:32:05;;;;;;;54.25;20.25;;;;;;;13.32;61.47;95304.44;5061028;28;20040;-75
2022/05/13 03:34:31;;;;;;;40.80;18.30;;;;;;;13.34;61.73;95300.56;5060996;28;20033;-75
2022/05/13 03:36:56;;;;;;;55.05;19.63;;;;;;;13.38;61.35;95298.28;5060805;28;20032;-74
2022/05/13 03:39:22;;;;;;;75.72;20.23;;;;;;;13.44;61.37;95305.94;5044446;28;20456;-75
2022/05/13 03:41:47;;;;;;;44.88;18.52;;;;;;;13.51;61.06;95295.34;5063206;28;20038;-74
2022/05/13 03:44:13;;;;;;;45.25;18.85;;;;;;;13.56;60.81;95308.50;5073045;28;20044;-75
2022/05/13 03:46:39;;;;;;;49.92;16.83;;;;;;;13.62;60.36;95311.97;5063233;28;20024;-74
2022/05/13 03:49:04;;;;;;;50.17;16.30;;;;;;;13.72;60.49;95314.75;5061744;28;20029;-75
2022/05/13 03:51:29;;;;;;;52.20;16.92;;;;;;;13.79;60.56;95313.53;5060910;28;20447;-74
2022/05/13 03:53:55;;;;;;;43.05;15.05;;;;;;;13.89;60.18;95323.34;5060872;28;20469;-75
2022/05/13 03:56:20;;;;;;;52.55;14.95;;;;;;;13.97;59.88;95325.56;5060076;28;20036;-74
2022/05/13 03:58:46;;;;;;;54.30;14.40;;;;;;;14.05;59.83;95327.78;5059489;28;20058;-74
2022/05/13 04:01:11;;;;;;;33.08;12.93;;;;;;;14.18;59.46;95326.66;5060828;28;20500;-75
2022/05/13 04:03:37;;;;;;;42.95;14.52;;;;;;;14.89;58.44;95322.28;5060448;28;20078;-75
2022/05/13 04:08:59;;;;;;;46.95;12.48;;;;;;;19.28;46.15;95331.00;5071817;28;20093;-76
2022/05/13 04:11:32;;;;;;;47.65;11.98;;;;;;;21.42;41.43;95324.34;5063870;28;20055;-75
2022/05/13 04:16:43;;;;;;;38.05;12.10;;;;;;;24.87;34.07;95325.28;5061279;28;20545;-75
2022/05/13 04:19:09;;;;;;;48.72;11.45;;;;;;;26.35;31.58;95335.66;5060730;28;20038;-76
2022/05/13 04:21:36;;;;;;;48.53;10.70;;;;;;;27.65;29.41;95333.06;5061091;28;20040;-74
2022/05/13 04:24:04;;;;;;;54.17;9.48;;;;;;;28.91;27.48;95320.88;5042636;28;20090;-76
2022/05/13 04:26:29;;;;;;;20.48;8.77;;;;;;;30.02;25.87;95332.09;5060396;28;20032;-75
2022/05/13 04:28:55;;;;;;;39.78;8.43;;;;;;;31.20;24.02;95325.84;5059917;28;20035;-75
2022/05/13 04:31:25;;;;;;;33.53;8.52;;;;;;;32.24;22.46;95329.47;5041754;28;20093;-75
2022/05/13 04:33:51;;;;;;;15.30;7.25;;;;;;;33.33;21.08;95317.34;5060318;28;20025;-75
2022/05/13 04:36:17;;;;;;;23.10;7.88;;;;;;;34.31;20.15;95324.28;5058812;28;20040;-77
2022/05/13 04:38:44;;;;;;;35.22;8.00;;;;;;;35.07;18.91;95324.56;5058934;28;20040;-76
2022/05/13 04:43:54;;;;;;;29.00;9.02;;;;;;;36.75;17.56;95336.75;5057466;28;20054;-76
2022/05/13 04:46:20;;;;;;;39.78;8.63;;;;;;;37.52;16.70;95335.13;5061508;28;20028;-78
2022/05/13 04:51:19;;;;;;;30.27;7.27;;;;;;;38.80;14.68;95333.69;5193867;23;20080;-77
2022/05/13 04:53:45;;;;;;;15.52;5.05;;;;;;;39.45;14.10;95331.16;5042691;28;20083;-75
2022/05/13 04:56:11;;;;;;;38.95;5.72;;;;;;;39.97;13.53;95336.41;5039834;28;20064;-75
2022/05/13 04:58:36;;;;;;;37.95;6.20;;;;;;;40.37;13.29;95332.75;5042764;28;20953;-76
2022/05/13 05:01:05;;;;;;;25.95;7.20;;;;;;;40.86;12.77;95329.72;5039721;28;20044;-76
2022/05/13 05:03:30;;;;;;;13.73;4.20;;;;;;;41.36;12.38;95335.06;5037753;28;20098;-75
2022/05/13 05:05:56;;;;;;;12.32;4.10;;;;;;;41.59;11.83;95332.28;5038133;28;20037;-77
2022/05/13 05:08:22;;;;;;;14.45;4.90;;;;;;;42.01;12.16;95326.38;5039043;28;20036;-76
2022/05/13 05:10:48;;;;;;;19.90;4.22;;;;;;;42.58;11.77;95328.63;5040564;28;20416;-76
2022/05/13 05:13:21;;;;;;;26.42;5.10;;;;;;;43.03;11.06;95336.16;5022159;28;20512;-78
2022/05/13 05:15:47;;;;;;;17.90;5.78;;;;;;;43.35;10.89;95338.09;5040878;28;20466;-79
2022/05/13 05:18:13;;;;;;;24.52;5.10;;;;;;;43.55;10.63;95343.41;5031091;28;20658;-76
2022/05/13 05:20:38;;;;;;;16.88;4.90;;;;;;;43.88;10.65;95344.84;5040159;28;20030;-76
2022/05/13 05:23:05;;;;;;;12.82;4.93;;;;;;;44.48;10.13;95347.81;5040726;28;20033;-76
2022/05/13 05:25:30;;;;;;;18.05;5.00;;;;;;;45.03;9.79;95342.91;5063587;28;20061;-77
2022/05/13 05:27:56;;;;;;;20.33;4.40;;;;;;;45.77;9.53;95345.06;5063403;28;20059;-77
2022/05/13 05:30:22;;;;;;;23.88;4.75;;;;;;;46.42;9.04;95348.19;5047046;28;20086;-77
2022/05/13 05:32:48;;;;;;;10.40;4.60;;;;;;;46.75;8.58;95343.69;5039920;28;20508;-77
2022/05/13 05:35:15;;;;;;;15.40;4.90;;;;;;;47.19;8.66;95338.00;5062484;28;20500;-77
2022/05/13 05:37:41;;;;;;;8.88;4.13;;;;;;;47.60;8.15;95339.38;5062021;28;20238;-77
2022/05/13 05:40:09;;;;;;;10.93;4.25;;;;;;;47.63;8.09;95337.69;5048442;28;20041;-78
2022/05/13 05:42:36;;;;;;;24.90;4.53;;;;;;;47.63;8.21;95341.22;5041594;28;20029;-78
2022/05/13 05:45:01;;;;;;;9.27;4.03;;;;;;;47.59;8.17;95337.84;5047863;28;20030;-78
2022/05/13 05:47:27;;;;;;;12.95;3.97;;;;;;;47.25;8.54;95336.16;5041833;28;20440;-78
2022/05/13 05:49:52;;;;;;;12.18;3.92;;;;;;;46.50;8.40;95339.19;5040781;28;20037;-78
2022/05/13 05:52:18;;;;;;;9.60;4.07;;;;;;;46.70;8.70;95338.78;5040481;28;20034;-78
2022/05/13 05:57:14;;;;;;;10.13;4.10;;;;;;;45.86;9.03;95329.84;5709338;23;20056;-78
2022/05/13 05:59:43;;;;;;;16.20;4.40;;;;;;;45.76;9.15;95332.53;5081844;28;20032;-78
2022/05/13 06:02:09;;;;;;;20.23;4.47;;;;;;;45.77;9.16;95328.59;5068795;28;20033;-77
2022/05/13 06:04:37;;;;;;;13.00;4.00;;;;;;;46.03;8.95;95328.44;5060619;28;20040;-77
2022/05/13 06:07:07;;;;;;;11.75;4.40;;;;;;;45.84;9.30;95322.03;5077341;28;20044;-78
2022/05/13 06:09:33;;;;;;;17.80;5.13;;;;;;;45.71;9.33;95324.84;5044169;28;20039;-78
2022/05/13 06:11:59;;;;;;;11.43;4.35;;;;;;;45.29;9.52;95323.63;5061096;28;20037;-77
2022/05/13 06:14:26;;;;;;;11.93;3.85;;;;;;;45.52;9.23;95319.66;5061133;28;20064;-77
2022/05/13 06:16:52;;;;;;;16.15;3.97;;;;;;;45.09;9.71;95324.69;5066284;28;20057;-78
2022/05/13 06:19:17;;;;;;;12.93;3.85;;;;;;;44.53;9.80;95311.59;5043100;28;20033;-77
2022/05/13 06:21:43;;;;;;;16.15;4.50;;;;;;;43.40;10.63;95319.16;5058554;28;20037;-77
2022/05/13 06:24:09;;;;;;;13.10;4.38;;;;;;;42.91;11.14;95309.50;5059451;28;20498;-79
2022/05/13 06:26:35;;;;;;;12.98;4.20;;;;;;;42.14;11.89;95308.16;5026037;28;20097;-78
2022/05/13 06:29:02;;;;;;;13.02;5.05;;;;;;;42.09;11.96;95303.19;5043230;28;20032;-78
2022/05/13 06:31:28;;;;;;;13.52;4.55;;;;;;;41.81;12.24;95299.09;5059689;28;20032;-78
2022/05/13 06:33:53;;;;;;;12.32;5.25;;;;;;;41.62;11.49;95304.13;5033328;28;20374;-78
2022/05/13 06:36:19;;;;;;;15.98;5.30;;;;;;;40.80;12.13;95299.38;5062301;28;20534;-77
2022/05/13 06:38:44;;;;;;;8.85;4.25;;;;;;;39.75;13.13;95303.22;5060862;28;20036;-76
2022/05/13 06:41:10;;;;;;;12.85;4.05;;;;;;;39.76;13.09;95300.09;5064079;28;20029;-78
2022/05/13 06:43:35;;;;;;;11.38;4.85;;;;;;;39.15;13.59;95299.97;5058737;28;20029;-78
2022/05/13 06:46:01;;;;;;;15.98;5.22;;;;;;;38.56;14.46;95296.59;5059576;28;20039;-78
2022/05/13 06:48:27;;;;;;;10.27;4.63;;;;;;;38.13;14.70;95296.88;5060476;28;20044;-77
2022/05/13 06:50:53;;;;;;;9.93;5.07;;;;;;;37.80;15.51;95300.94;5073044;28;20025;-76
2022/05/13 06:53:19;;;;;;;12.40;4.95;;;;;;;37.28;15.36;95297.25;5047114;28;20021;-78
2022/05/13 06:55:45;;;;;;;18.52;5.38;;;;;;;36.61;15.67;95298.81;5065920;28;20104;-80
2022/05/13 06:58:13;;;;;;;16.55;5.68;;;;;;;35.88;16.80;95290.97;5062600;28;20116;-78
2022/05/13 07:00:38;;;;;;;13.02;5.20;;;;;;;35.14;17.20;95278.63;5064118;28;20099;-77
2022/05/13 07:03:06;;;;;;;13.88;4.50;;;;;;;34.43;18.26;95286.22;5048405;28;20116;-78
2022/05/13 07:05:32;;;;;;;25.55;5.35;;;;;;;34.14;18.92;95285.16;5062256;28;20037;-78
2022/05/13 07:07:58;;;;;;;11.05;4.75;;;;;;;33.56;19.07;95282.22;5030346;28;20044;-78
2022/05/13 07:10:24;;;;;;;13.63;5.30;;;;;;;33.19;19.66;95282.88;5064986;28;20107;-78
2022/05/13 07:12:49;;;;;;;14.27;6.30;;;;;;;32.91;19.38;95285.19;5030329;28;20032;-78
2022/05/13 07:15:17;;;;;;;12.95;6.05;;;;;;;32.68;19.31;95277.88;5060824;28;20041;-78
2022/05/13 07:17:43;;;;;;;12.35;5.50;;;;;;;32.61;20.53;95280.50;5059790;28;20037;-78
2022/05/13 07:20:09;;;;;;;15.35;6.13;;;;;;;32.51;21.09;95278.41;5063867;28;20116;-77
2022/05/13 07:22:34;;;;;;;16.95;6.20;;;;;;;32.28;20.58;95278.41;5043404;28;20025;-78
2022/05/13 07:25:00;;;;;;;11.45;5.82;;;;;;;32.06;20.75;95279.94;5045335;28;20041;-79
2022/05/13 07:27:27;;;;;;;13.93;5.80;;;;;;;31.85;21.26;95280.31;5048767;28;20117;-80
2022/05/13 07:29:53;;;;;;;12.18;5.68;;;;;;;31.78;21.47;95276.75;5063408;28;20476;-79
2022/05/13 07:32:19;;;;;;;14.60;5.90;;;;;;;31.52;21.62;95278.13;5063338;28;20022;-80
2022/05/13 07:34:44;;;;;;;30.75;7.32;;;;;;;31.44;22.05;95279.13;5051537;28;20077;-79
2022/05/13 07:37:10;;;;;;;24.27;6.28;;;;;;;31.31;22.17;95277.69;5067866;28;20029;-78
2022/05/13 07:42:20;;;;;;;19.13;6.07;;;;;;;30.56;22.29;95269.84;5052709;28;20039;-79
2022/05/13 07:44:45;;;;;;;10.70;5.53;;;;;;;30.15;23.40;95263.91;5063666;28;20056;-79
2022/05/13 07:47:11;;;;;;;19.63;4.90;;;;;;;29.92;24.80;95265.56;5066138;28;20488;-79
2022/05/13 07:49:39;;;;;;;19.52;5.65;;;;;;;29.62;24.64;95263.28;5060443;28;20423;-80
2022/05/13 07:52:05;;;;;;;14.27;5.68;;;;;;;29.42;25.19;95254.25;5064852;28;20120;-78
2022/05/13 07:54:31;;;;;;;12.40;5.03;;;;;;;29.20;25.62;95252.88;5061314;28;20120;-78
2022/05/13 07:56:57;;;;;;;10.10;4.47;;;;;;;29.27;25.93;95250.41;5046184;28;20033;-77
2022/05/13 07:59:22;;;;;;;11.13;4.25;;;;;;;29.38;26.44;95249.94;5059495;28;20033;-74
2022/05/13 08:02:08;;;;;;;16.05;5.18;;;;;;;29.39;25.08;95254.16;5063514;28;20055;-78
2022/05/13 08:04:34;;;;;;;18.70;5.00;;;;;;;29.18;25.30;95247.09;5050325;28;20052;-77
2022/05/13 08:06:59;;;;;;;17.83;4.80;;;;;;;29.08;25.83;95246.78;5065876;28;20058;-77
2022/05/13 08:09:25;;;;;;;22.92;5.75;;;;;;;28.84;26.00;95247.59;5067284;28;20028;-78
2022/05/13 08:11:50;;;;;;;33.25;6.03;;;;;;;28.73;25.83;95241.13;5063345;28;20492;-78
2022/05/13 08:14:16;;;;;;;12.85;5.13;;;;;;;28.70;25.97;95243.38;5065862;28;20082;-79
2022/05/13 08:16:41;;;;;;;29.38;6.70;;;;;;;28.72;27.40;95240.34;5039248;28;20037;-77
2022/05/13 08:19:07;;;;;;;17.23;5.03;;;;;;;28.81;26.46;95235.66;5050869;28;20045;-78
2022/05/13 08:21:35;;;;;;;11.38;4.10;;;;;;;28.86;27.32;95231.97;5065385;28;20040;-78
2022/05/13 08:24:01;;;;;;;18.30;5.25;;;;;;;28.86;25.87;95234.66;5051886;28;20029;-78
2022/05/13 08:26:27;;;;;;;12.23;5.35;;;;;;;28.83;26.11;95236.09;5067503;28;20118;-78
2022/05/13 08:28:52;;;;;;;44.78;6.68;;;;;;;28.80;27.17;95226.06;5034674;28;20044;-77
2022/05/13 08:31:18;;;;;;;18.42;4.35;;;;;;;28.82;28.53;95223.84;5068635;28;20041;-78
2022/05/13 08:33:43;;;;;;;12.52;4.57;;;;;;;28.83;28.36;95224.63;5040087;28;20029;-79
2022/05/13 08:36:09;;;;;;;10.68;4.47;;;;;;;28.78;26.66;95225.59;5069120;28;20040;-77
2022/05/13 08:38:38;;;;;;;140.20;23.33;;;;;;;28.67;28.30;95225.31;5064385;28;20544;-77
2022/05/13 08:41:10;;;;;;;15.88;5.00;;;;;;;28.58;27.53;95221.97;5035210;28;20071;-78
2022/05/13 08:43:47;;;;;;;14.20;5.47;;;;;;;28.47;28.36;95220.84;5066049;28;20531;-77
2022/05/13 08:46:16;;;;;;;17.80;4.40;;;;;;;28.43;29.19;95211.94;5064927;28;20115;-78
2022/05/13 08:49:04;;;;;;;14.98;4.78;;;;;;;28.44;28.46;95213.50;5068203;28;20177;-78
2022/05/13 08:53:06;;;;;;;9.93;3.92;;;;;;;28.32;28.40;95208.19;5061468;28;20029;-79
2022/05/13 08:54:54;;;;;;;8.02;4.38;;;;;;;28.09;26.57;95207.78;5067988;28;20052;-79
2022/05/13 08:57:21;;;;;;;13.45;4.60;;;;;;;27.96;27.22;95209.66;5066554;28;20029;-81
2022/05/13 09:00:03;;;;;;;15.38;4.13;;;;;;;27.89;27.29;95201.44;5065197;28;20212;-79
2022/05/13 09:02:32;;;;;;;12.88;4.28;;;;;;;27.93;28.35;95199.63;5049143;28;20067;-79
2022/05/13 09:05:21;;;;;;;9.73;3.80;;;;;;;27.95;29.00;95192.06;5065009;28;20472;-80
2022/05/13 09:07:47;;;;;;;10.07;3.60;;;;;;;27.95;28.87;95193.97;5068156;28;20067;-79
2022/05/13 09:10:13;;;;;;;12.02;3.90;;;;;;;27.93;27.76;95188.16;5032910;28;20036;-79
2022/05/13 09:12:50;;;;;;;11.63;3.95;;;;;;;27.89;27.86;95188.06;5071552;28;20411;-78
2022/05/13 09:15:34;;;;;;;6.53;3.63;;;;;;;27.83;28.81;95186.72;5052567;28;20036;-80
2022/05/13 09:18:31;;;;;;;10.27;4.07;;;;;;;27.86;27.67;95180.72;5069681;28;20058;-80
2022/05/13 09:20:58;;;;;;;6.22;3.72;;;;;;;27.80;26.61;95177.47;5066558;28;20048;-80
2022/05/13 09:23:24;;;;;;;7.22;4.05;;;;;;;27.74;26.68;95183.34;5049342;28;20032;-79
2022/05/13 09:26:03;;;;;;;6.50;3.88;;;;;;;27.74;29.30;95180.69;5058940;28;20065;-79
2022/05/13 09:28:31;;;;;;;10.35;4.03;;;;;;;27.69;26.85;95172.91;5068325;28;20090;-80
2022/05/13 09:31:21;;;;;;;11.05;3.70;;;;;;;27.64;27.51;95162.41;5065903;28;20045;-80
2022/05/13 09:33:47;;;;;;;7.10;3.33;;;;;;;27.64;29.17;95167.75;5050183;28;20040;-80
2022/05/13 09:36:18;;;;;;;4.93;3.60;;;;;;;27.62;28.19;95164.59;5055141;28;20485;-80
2022/05/13 09:38:46;;;;;;;10.43;4.10;;;;;;;27.58;27.59;95158.38;5068987;28;20056;-81
2022/05/13 09:41:14;;;;;;;14.63;3.95;;;;;;;27.50;27.22;95150.13;5061809;28;20040;-82
2022/05/13 09:44:02;;;;;;;10.52;3.58;;;;;;;27.50;28.62;95139.44;5045209;28;20021;-79
2022/05/13 09:46:36;;;;;;;8.68;3.70;;;;;;;27.53;29.22;95143.34;5057777;28;20100;-80
2022/05/13 09:49:11;;;;;;;9.20;4.07;;;;;;;27.55;29.69;95133.09;5063104;28;20061;-77
2022/05/13 09:51:57;;;;;;;28.15;4.10;;;;;;;27.55;27.98;95135.75;5061791;28;20119;-83
2022/05/13 09:54:27;;;;;;;16.88;4.40;;;;;;;27.55;30.21;95121.63;5064716;28;20052;-83
2022/05/13 09:57:04;;;;;;;16.50;4.32;;;;;;;27.49;29.14;95124.50;5061631;28;20067;-82
2022/05/13 09:59:35;;;;;;;9.75;3.35;;;;;;;27.42;28.26;95118.16;5061859;28;20040;-82
2022/05/13 10:02:24;;;;;;;16.15;4.18;;;;;;;27.29;27.60;95109.31;5037685;28;20583;-82
2022/05/13 10:04:51;;;;;;;13.85;4.07;;;;;;;27.21;27.71;95115.56;5029733;28;20056;-80
2022/05/13 10:07:17;;;;;;;21.27;4.47;;;;;;;27.14;29.47;95112.63;5061399;28;20072;-79
2022/05/13 10:15:25;;;;;;;21.27;4.28;;;;;;;27.02;30.89;95093.91;5064386;28;20423;-82
2022/05/13 10:17:53;;;;;;;10.32;3.95;;;;;;;27.05;30.93;95098.59;5049737;28;20067;-83
2022/05/13 10:20:31;;;;;;;6.82;3.65;;;;;;;27.06;30.86;95095.59;5047482;28;20048;-83
2022/05/13 10:23:18;;;;;;;10.40;4.22;;;;;;;26.59;26.89;95090.50;5053012;28;20041;-82
2022/05/13 10:25:54;;;;;;;7.95;3.58;;;;;;;26.67;30.51;95091.50;5061748;28;20048;-83
2022/05/13 10:28:23;;;;;;;10.38;3.80;;;;;;;26.75;31.14;95092.56;5059773;28;20029;-82
2022/05/13 10:30:56;;;;;;;11.20;3.72;;;;;;;26.79;29.75;95098.78;5058539;28;20035;-83
2022/05/13 10:33:41;;;;;;;13.20;4.18;;;;;;;26.69;26.77;95089.31;5068484;28;20082;-83
2022/05/13 10:36:12;;;;;;;6.68;3.42;;;;;;;26.62;27.28;95086.38;5067279;28;20965;-83
2022/05/13 10:38:46;;;;;;;;;;;;;;;26.64;26.99;95084.16;5067661;28;20037;-81
2022/05/13 10:41:37;;;;;;;8.02;4.85;;;;;;;26.55;27.11;95084.25;5082499;28;19917;-82
2022/05/13 10:44:09;;;;;;;9.57;4.53;;;;;;;26.30;28.69;95093.19;5050809;28;20035;-83
2022/05/13 10:46:58;;;;;;;10.05;3.50;;;;;;;26.42;29.99;95084.50;5066345;28;20455;-82
2022/05/13 10:49:27;;;;;;;21.08;3.80;;;;;;;26.47;30.81;95074.41;5051825;28;20032;-83
2022/05/13 10:52:18;;;;;;;4.65;3.63;;;;;;;26.55;29.28;95072.81;5066445;28;20049;-83
2022/05/13 10:55:00;;;;;;;3.67;3.25;;;;;;;26.56;31.00;95064.47;5075482;28;20045;-82
2022/05/13 10:57:28;;;;;;;6.40;3.50;;;;;;;26.60;30.93;95061.94;5048764;28;20044;-81
2022/05/13 11:00:11;;;;;;;6.75;3.28;;;;;;;26.63;30.26;95058.59;5067560;28;20040;-83
2022/05/13 11:02:59;;;;;;;7.13;3.90;;;;;;;26.62;27.73;95049.81;5065357;28;20043;-83
2022/05/13 11:05:46;;;;;;;7.25;3.60;;;;;;;26.51;27.58;95047.88;5057525;28;20041;-83
2022/05/13 11:08:34;;;;;;;9.00;3.80;;;;;;;26.38;27.72;95047.06;5064233;28;20511;-83
2022/05/13 11:11:38;;;;;;;9.02;3.85;;;;;;;26.08;28.81;95032.97;5066098;28;20472;-81
2022/05/13 11:14:09;;;;;;;15.95;3.80;;;;;;;25.73;28.42;95033.19;5064139;28;20033;-83
2022/05/13 11:16:56;;;;;;;13.27;3.60;;;;;;;25.77;28.90;95033.31;5067996;28;20041;-83
2022/05/13 11:19:24;;;;;;;7.20;3.85;;;;;;;25.83;28.65;95025.91;5067839;28;20315;-81
2022/05/13 11:21:50;;;;;;;7.00;3.92;;;;;;;25.94;31.73;95019.13;5080285;28;20055;-81
2022/05/13 11:27:42;;;;;;;16.40;3.47;;;;;;;25.88;27.32;95029.19;5077927;28;20048;-82
2022/05/13 11:30:21;;;;;;;5.88;3.20;;;;;;;25.84;26.46;95012.28;5067957;28;20060;-82
2022/05/13 11:32:57;;;;;;;5.85;3.42;;;;;;;25.88;27.11;95012.44;5065737;28;20043;-82
2022/05/13 11:35:39;;;;;;;6.25;3.22;;;;;;;25.73;26.64;95011.09;5050384;28;20519;-82
2022/05/13 11:38:17;;;;;;;22.20;3.45;;;;;;;25.71;26.53;95003.44;5052445;28;20115;-82
2022/05/13 11:41:22;;;;;;;6.78;3.10;;;;;;;25.83;26.64;94993.94;5047480;28;20037;-83
2022/05/13 11:44:00;;;;;;;4.57;3.22;;;;;;;25.89;27.81;94998.00;4998145;28;20105;-83
2022/05/13 11:46:46;;;;;;;5.50;3.60;;;;;;;25.95;27.32;94992.16;4971422;28;20042;-82
2022/05/13 11:49:25;;;;;;;4.95;3.20;;;;;;;25.97;27.65;94999.81;5042297;28;20044;-81
2022/05/13 11:51:51;;;;;;;4.95;2.80;;;;;;;26.00;27.42;94994.59;5078046;28;20112;-82
2022/05/13 11:54:28;;;;;;;5.65;2.78;;;;;;;26.05;27.56;95001.66;5071966;23;20334;-82
2022/05/13 11:57:38;;;;;;;4.45;3.17;;;;;;;26.03;28.35;94987.84;5076752;28;20480;-82
2022/05/13 12:00:13;;;;;;;7.05;3.20;;;;;;;26.12;29.23;94985.91;5065494;28;20060;-82
2022/05/13 12:02:56;;;;;;;6.82;3.38;;;;;;;26.14;28.49;94980.25;5065769;28;20051;-82
2022/05/13 12:05:21;;;;;;;4.15;3.20;;;;;;;26.20;28.49;94973.63;5064736;28;20045;-81